Terminal Aerodrome Forecast
Issued by NWS

Home | Current Version | Previous Version | Text Only | Print | Product List | Glossary On
Versions: 1 2 3 4 5 6 7 8 9 10 11 12 13 14 15 16 17 18 19 20 21 22 23 24 25 26 27 28
684
FTUS42 KJAX 231750
TAFVQQ
TAF
KVQQ 231750Z 2318/2418 26018G33KT P6SM BKN030
      TEMPO 2318/2322 BKN025
     FM240000 27013G23KT P6SM SCT030
     FM240300 28012G21KT P6SM SKC
     FM241200 29009G15KT P6SM SKC=

USA.gov is the U.S. government's official web portal to all federal, state and local government web resources and services.